Benavides, Texas
Current Conditions -  °F | °C
As of 9:53 PM on Saturday 25 Oct 2014 (Local Time) from KALI Reporting Station
Clear Clear  
Wind Chill: 66°   Ceiling: Unl
Heat Index: 66°   Visibility: 10mi
Dew Point: 62°   Wind: 6mph
Humidity: 87%   Direction: 150°SSE
Pressure: 30.11"   Gusts: NA
Location:  27.6°N, 98.41°W
Report Text: KALI 260253Z AUTO 15005KT 10SM CLR 19/17 A3011 RMK AO2 SLP193 T01890167 51010
Loading
Personal Weather Stations






























Interactive Weather Map
Tropical Storm Tracking
New forecast layout! Learn more

10-Day Weather Forecast

Advertisements
Track Severe Weather on mobile